Weather at Doylestown Airport

Public forecast

Using degrees Fahrenheit for public forecast. Weather courtesy of forecast.io.

Current aviation weather report (METAR) for Doylestown Airport

Retrieved 2020/11/24 06:54 UTC (1 hour ago):

KDYL 240654Z AUTO 27005KT 10SM CLR 04/M02 A3020 RMK AO2 SLP232 T00391022

Closest aviation forecast (TAF) to Doylestown Airport

Closest forecast is Trenton Mercer Airport, 14.5 nm (26.9 km) ESE. Retrieved 2020/11/24 06:39 UTC (1 hour ago):

TAF KTTN 240536Z 2406/2506 29006KT P6SM SCT060 FM241400 32008KT P6SM SKC FM242200 VRB02KT P6SM SCT150